sensor_id;sensor_type;location;lat;lon;timestamp;P1;durP1;ratioP1;P2;durP2;ratioP2
16099;SDS011;8154;50.830;12.082;2024-02-26T00:01:58;2.75;;;1.30;;
16099;SDS011;8154;50.830;12.082;2024-02-26T00:04:26;3.10;;;1.20;;
16099;SDS011;8154;50.830;12.082;2024-02-26T00:06:53;3.42;;;1.30;;
16099;SDS011;8154;50.830;12.082;2024-02-26T00:09:20;3.35;;;1.30;;
16099;SDS011;8154;50.830;12.082;2024-02-26T00:11:46;2.90;;;1.40;;
16099;SDS011;8154;50.830;12.082;2024-02-26T00:14:12;2.47;;;1.13;;
16099;SDS011;8154;50.830;12.082;2024-02-26T00:16:41;2.93;;;1.30;;
16099;SDS011;8154;50.830;12.082;2024-02-26T00:19:08;3.25;;;1.20;;
16099;SDS011;8154;50.830;12.082;2024-02-26T00:21:52;2.75;;;1.20;;
16099;SDS011;8154;50.830;12.082;2024-02-26T00:24:23;2.78;;;1.40;;
16099;SDS011;8154;50.830;12.082;2024-02-26T00:26:53;3.15;;;1.27;;
16099;SDS011;8154;50.830;12.082;2024-02-26T00:29:23;2.30;;;1.00;;
16099;SDS011;8154;50.830;12.082;2024-02-26T00:31:50;2.50;;;1.17;;
16099;SDS011;8154;50.830;12.082;2024-02-26T00:34:17;2.55;;;1.30;;
16099;SDS011;8154;50.830;12.082;2024-02-26T00:36:43;2.97;;;1.27;;
16099;SDS011;8154;50.830;12.082;2024-02-26T00:39:29;2.83;;;1.30;;
16099;SDS011;8154;50.830;12.082;2024-02-26T00:41:55;2.30;;;1.20;;
16099;SDS011;8154;50.830;12.082;2024-02-26T00:44:29;2.85;;;1.30;;
16099;SDS011;8154;50.830;12.082;2024-02-26T00:46:58;2.40;;;1.17;;
16099;SDS011;8154;50.830;12.082;2024-02-26T00:49:27;2.72;;;1.30;;
16099;SDS011;8154;50.830;12.082;2024-02-26T00:51:56;2.17;;;1.15;;
16099;SDS011;8154;50.830;12.082;2024-02-26T00:54:25;2.93;;;1.23;;
16099;SDS011;8154;50.830;12.082;2024-02-26T00:56:51;2.88;;;1.48;;
16099;SDS011;8154;50.830;12.082;2024-02-26T00:59:17;2.80;;;1.25;;
16099;SDS011;8154;50.830;12.082;2024-02-26T01:01:44;2.45;;;1.10;;
16099;SDS011;8154;50.830;12.082;2024-02-26T01:04:10;3.65;;;1.40;;
16099;SDS011;8154;50.830;12.082;2024-02-26T01:06:40;3.73;;;1.50;;
16099;SDS011;8154;50.830;12.082;2024-02-26T01:09:09;2.50;;;1.25;;
16099;SDS011;8154;50.830;12.082;2024-02-26T01:11:38;2.45;;;1.10;;
16099;SDS011;8154;50.830;12.082;2024-02-26T01:14:06;2.83;;;1.30;;
16099;SDS011;8154;50.830;12.082;2024-02-26T01:16:33;3.00;;;1.20;;
16099;SDS011;8154;50.830;12.082;2024-02-26T01:18:59;2.60;;;1.20;;
16099;SDS011;8154;50.830;12.082;2024-02-26T01:21:25;3.35;;;1.30;;
16099;SDS011;8154;50.830;12.082;2024-02-26T01:24:15;3.47;;;1.50;;
16099;SDS011;8154;50.830;12.082;2024-02-26T01:26:42;2.35;;;1.15;;
16099;SDS011;8154;50.830;12.082;2024-02-26T01:29:10;2.70;;;1.30;;
16099;SDS011;8154;50.830;12.082;2024-02-26T01:31:39;2.33;;;1.10;;
16099;SDS011;8154;50.830;12.082;2024-02-26T01:34:08;2.97;;;1.35;;
16099;SDS011;8154;50.830;12.082;2024-02-26T01:36:36;3.75;;;1.33;;
16099;SDS011;8154;50.830;12.082;2024-02-26T01:39:03;2.92;;;1.33;;
16099;SDS011;8154;50.830;12.082;2024-02-26T01:41:29;2.75;;;1.38;;
16099;SDS011;8154;50.830;12.082;2024-02-26T01:44:14;2.83;;;1.30;;
16099;SDS011;8154;50.830;12.082;2024-02-26T01:46:40;3.20;;;1.40;;
16099;SDS011;8154;50.830;12.082;2024-02-26T01:49:08;3.15;;;1.20;;
16099;SDS011;8154;50.830;12.082;2024-02-26T01:51:41;2.88;;;1.20;;
16099;SDS011;8154;50.830;12.082;2024-02-26T01:54:10;3.42;;;1.40;;
16099;SDS011;8154;50.830;12.082;2024-02-26T01:56:39;3.23;;;1.40;;
16099;SDS011;8154;50.830;12.082;2024-02-26T01:59:05;2.92;;;1.40;;
16099;SDS011;8154;50.830;12.082;2024-02-26T02:01:34;3.00;;;1.30;;
16099;SDS011;8154;50.830;12.082;2024-02-26T02:04:02;2.92;;;1.40;;
16099;SDS011;8154;50.830;12.082;2024-02-26T02:06:28;3.25;;;1.20;;
16099;SDS011;8154;50.830;12.082;2024-02-26T02:09:13;3.40;;;1.40;;
16099;SDS011;8154;50.830;12.082;2024-02-26T02:11:42;3.13;;;1.27;;
16099;SDS011;8154;50.830;12.082;2024-02-26T02:14:13;3.05;;;1.40;;
16099;SDS011;8154;50.830;12.082;2024-02-26T02:16:39;2.47;;;1.30;;
16099;SDS011;8154;50.830;12.082;2024-02-26T02:19:09;3.42;;;1.45;;
16099;SDS011;8154;50.830;12.082;2024-02-26T02:21:37;2.57;;;1.20;;
16099;SDS011;8154;50.830;12.082;2024-02-26T02:24:21;2.80;;;1.30;;
16099;SDS011;8154;50.830;12.082;2024-02-26T02:26:47;2.88;;;1.30;;
16099;SDS011;8154;50.830;12.082;2024-02-26T02:29:14;3.40;;;1.40;;
16099;SDS011;8154;50.830;12.082;2024-02-26T02:31:40;1.95;;;1.00;;
16099;SDS011;8154;50.830;12.082;2024-02-26T02:34:12;2.43;;;1.17;;
16099;SDS011;8154;50.830;12.082;2024-02-26T02:37:00;2.83;;;1.20;;
16099;SDS011;8154;50.830;12.082;2024-02-26T02:39:26;3.33;;;1.52;;
16099;SDS011;8154;50.830;12.082;2024-02-26T02:41:55;2.33;;;1.20;;
16099;SDS011;8154;50.830;12.082;2024-02-26T02:44:21;2.80;;;1.30;;
16099;SDS011;8154;50.830;12.082;2024-02-26T02:46:48;3.63;;;1.50;;
16099;SDS011;8154;50.830;12.082;2024-02-26T02:49:16;2.20;;;1.10;;
16099;SDS011;8154;50.830;12.082;2024-02-26T02:51:42;2.40;;;1.27;;
16099;SDS011;8154;50.830;12.082;2024-02-26T02:54:09;2.42;;;1.10;;
16099;SDS011;8154;50.830;12.082;2024-02-26T02:56:38;2.65;;;1.13;;
16099;SDS011;8154;50.830;12.082;2024-02-26T03:54:31;2.83;;;1.30;;
16099;SDS011;8154;50.830;12.082;2024-02-26T03:56:57;2.65;;;1.35;;
16099;SDS011;8154;50.830;12.082;2024-02-26T03:59:23;3.15;;;1.27;;
16099;SDS011;8154;50.830;12.082;2024-02-26T04:01:53;2.77;;;1.20;;
16099;SDS011;8154;50.830;12.082;2024-02-26T04:04:19;2.03;;;1.20;;
16099;SDS011;8154;50.830;12.082;2024-02-26T04:06:48;2.50;;;1.40;;
16099;SDS011;8154;50.830;12.082;2024-02-26T04:09:16;3.35;;;1.67;;
16099;SDS011;8154;50.830;12.082;2024-02-26T04:11:42;2.97;;;1.43;;
16099;SDS011;8154;50.830;12.082;2024-02-26T04:14:08;2.67;;;1.30;;
16099;SDS011;8154;50.830;12.082;2024-02-26T04:16:37;2.20;;;1.30;;
16099;SDS011;8154;50.830;12.082;2024-02-26T04:19:03;2.63;;;1.38;;
16099;SDS011;8154;50.830;12.082;2024-02-26T04:21:46;2.72;;;1.23;;
16099;SDS011;8154;50.830;12.082;2024-02-26T04:24:15;2.78;;;1.30;;
16099;SDS011;8154;50.830;12.082;2024-02-26T04:26:44;3.10;;;1.50;;
16099;SDS011;8154;50.830;12.082;2024-02-26T04:29:13;2.72;;;1.30;;
16099;SDS011;8154;50.830;12.082;2024-02-26T04:31:42;2.20;;;1.10;;
16099;SDS011;8154;50.830;12.082;2024-02-26T04:34:08;2.28;;;1.20;;
16099;SDS011;8154;50.830;12.082;2024-02-26T04:36:34;2.10;;;1.30;;
16099;SDS011;8154;50.830;12.082;2024-02-26T04:39:17;2.43;;;1.30;;
16099;SDS011;8154;50.830;12.082;2024-02-26T04:41:43;2.83;;;1.40;;
16099;SDS011;8154;50.830;12.082;2024-02-26T04:44:14;2.47;;;1.20;;
16099;SDS011;8154;50.830;12.082;2024-02-26T04:46:43;2.63;;;1.20;;
16099;SDS011;8154;50.830;12.082;2024-02-26T04:49:12;2.88;;;1.35;;
16099;SDS011;8154;50.830;12.082;2024-02-26T04:51:40;2.90;;;1.50;;
16099;SDS011;8154;50.830;12.082;2024-02-26T04:54:08;2.15;;;1.20;;
16099;SDS011;8154;50.830;12.082;2024-02-26T04:56:34;2.83;;;1.40;;
16099;SDS011;8154;50.830;12.082;2024-02-26T04:59:20;2.53;;;1.30;;
16099;SDS011;8154;50.830;12.082;2024-02-26T05:01:46;3.28;;;1.45;;
16099;SDS011;8154;50.830;12.082;2024-02-26T05:04:29;2.83;;;1.20;;
16099;SDS011;8154;50.830;12.082;2024-02-26T05:06:58;1.98;;;1.10;;
16099;SDS011;8154;50.830;12.082;2024-02-26T05:09:27;2.65;;;1.40;;
16099;SDS011;8154;50.830;12.082;2024-02-26T05:11:53;3.15;;;1.67;;
16099;SDS011;8154;50.830;12.082;2024-02-26T05:14:20;3.10;;;1.37;;
16099;SDS011;8154;50.830;12.082;2024-02-26T05:16:48;2.60;;;1.20;;
16099;SDS011;8154;50.830;12.082;2024-02-26T05:19:14;2.45;;;1.40;;
16099;SDS011;8154;50.830;12.082;2024-02-26T05:21:40;2.63;;;1.40;;
16099;SDS011;8154;50.830;12.082;2024-02-26T05:24:08;2.83;;;1.40;;
16099;SDS011;8154;50.830;12.082;2024-02-26T05:26:34;3.03;;;1.37;;
16099;SDS011;8154;50.830;12.082;2024-02-26T05:29:20;2.65;;;1.20;;
16099;SDS011;8154;50.830;12.082;2024-02-26T05:32:06;3.90;;;1.60;;
16099;SDS011;8154;50.830;12.082;2024-02-26T05:34:33;2.95;;;1.40;;
16099;SDS011;8154;50.830;12.082;2024-02-26T05:36:59;3.25;;;1.55;;
16099;SDS011;8154;50.830;12.082;2024-02-26T05:39:26;3.03;;;1.50;;
16099;SDS011;8154;50.830;12.082;2024-02-26T05:41:53;3.85;;;2.00;;
16099;SDS011;8154;50.830;12.082;2024-02-26T05:44:38;3.80;;;1.67;;
16099;SDS011;8154;50.830;12.082;2024-02-26T05:47:04;3.38;;;1.70;;
16099;SDS011;8154;50.830;12.082;2024-02-26T05:49:31;4.78;;;2.00;;
16099;SDS011;8154;50.830;12.082;2024-02-26T05:52:00;4.03;;;1.90;;
16099;SDS011;8154;50.830;12.082;2024-02-26T05:54:29;4.15;;;1.90;;
16099;SDS011;8154;50.830;12.082;2024-02-26T05:56:58;4.43;;;1.92;;
16099;SDS011;8154;50.830;12.082;2024-02-26T05:59:24;3.65;;;1.80;;
16099;SDS011;8154;50.830;12.082;2024-02-26T06:01:50;4.70;;;1.90;;
16099;SDS011;8154;50.830;12.082;2024-02-26T06:04:16;4.38;;;2.00;;
16099;SDS011;8154;50.830;12.082;2024-02-26T06:06:45;4.00;;;2.00;;
16099;SDS011;8154;50.830;12.082;2024-02-26T06:09:11;5.03;;;2.17;;
16099;SDS011;8154;50.830;12.082;2024-02-26T06:11:57;4.03;;;2.03;;
16099;SDS011;8154;50.830;12.082;2024-02-26T06:14:25;4.03;;;2.20;;
16099;SDS011;8154;50.830;12.082;2024-02-26T06:16:53;4.95;;;2.28;;
16099;SDS011;8154;50.830;12.082;2024-02-26T06:19:22;4.40;;;2.10;;
16099;SDS011;8154;50.830;12.082;2024-02-26T06:21:49;4.93;;;2.40;;
16099;SDS011;8154;50.830;12.082;2024-02-26T06:24:16;4.13;;;2.22;;
16099;SDS011;8154;50.830;12.082;2024-02-26T06:26:42;4.33;;;2.10;;
16099;SDS011;8154;50.830;12.082;2024-02-26T06:29:08;3.92;;;1.83;;
16099;SDS011;8154;50.830;12.082;2024-02-26T06:31:34;4.65;;;2.30;;
16099;SDS011;8154;50.830;12.082;2024-02-26T06:34:03;4.97;;;2.30;;
16099;SDS011;8154;50.830;12.082;2024-02-26T06:36:32;4.57;;;2.13;;
16099;SDS011;8154;50.830;12.082;2024-02-26T06:39:02;3.90;;;2.10;;
16099;SDS011;8154;50.830;12.082;2024-02-26T06:41:31;4.35;;;2.13;;
16099;SDS011;8154;50.830;12.082;2024-02-26T06:43:58;3.80;;;2.05;;
16099;SDS011;8154;50.830;12.082;2024-02-26T06:46:24;4.60;;;2.30;;
16099;SDS011;8154;50.830;12.082;2024-02-26T06:48:51;4.60;;;2.42;;
16099;SDS011;8154;50.830;12.082;2024-02-26T06:51:17;3.70;;;1.90;;
16099;SDS011;8154;50.830;12.082;2024-02-26T06:53:44;4.05;;;2.10;;
16099;SDS011;8154;50.830;12.082;2024-02-26T06:56:12;4.88;;;2.45;;
16099;SDS011;8154;50.830;12.082;2024-02-26T06:58:41;4.78;;;2.35;;
16099;SDS011;8154;50.830;12.082;2024-02-26T07:01:12;4.80;;;2.20;;
16099;SDS011;8154;50.830;12.082;2024-02-26T07:03:41;4.50;;;2.20;;
16099;SDS011;8154;50.830;12.082;2024-02-26T07:06:08;4.38;;;2.13;;
16099;SDS011;8154;50.830;12.082;2024-02-26T07:08:34;3.67;;;2.00;;
16099;SDS011;8154;50.830;12.082;2024-02-26T07:11:00;4.40;;;2.30;;
16099;SDS011;8154;50.830;12.082;2024-02-26T07:13:26;4.32;;;2.25;;
16099;SDS011;8154;50.830;12.082;2024-02-26T07:15:52;4.93;;;2.37;;
16099;SDS011;8154;50.830;12.082;2024-02-26T07:18:21;4.78;;;2.38;;
16099;SDS011;8154;50.830;12.082;2024-02-26T07:20:50;4.68;;;2.40;;
16099;SDS011;8154;50.830;12.082;2024-02-26T07:23:19;4.45;;;2.20;;
16099;SDS011;8154;50.830;12.082;2024-02-26T07:25:46;4.13;;;2.17;;
16099;SDS011;8154;50.830;12.082;2024-02-26T07:28:14;4.37;;;2.23;;
16099;SDS011;8154;50.830;12.082;2024-02-26T07:30:40;4.20;;;2.10;;
16099;SDS011;8154;50.830;12.082;2024-02-26T07:33:06;4.50;;;2.33;;
16099;SDS011;8154;50.830;12.082;2024-02-26T07:35:33;4.82;;;2.40;;
16099;SDS011;8154;50.830;12.082;2024-02-26T07:38:00;4.60;;;2.30;;
16099;SDS011;8154;50.830;12.082;2024-02-26T07:40:29;4.20;;;2.10;;
16099;SDS011;8154;50.830;12.082;2024-02-26T07:42:57;3.78;;;1.83;;
16099;SDS011;8154;50.830;12.082;2024-02-26T07:45:25;4.05;;;2.03;;
16099;SDS011;8154;50.830;12.082;2024-02-26T07:47:54;4.13;;;1.90;;
16099;SDS011;8154;50.830;12.082;2024-02-26T07:50:20;4.18;;;2.10;;
16099;SDS011;8154;50.830;12.082;2024-02-26T07:52:46;4.17;;;2.03;;
16099;SDS011;8154;50.830;12.082;2024-02-26T07:55:13;3.95;;;1.90;;
16099;SDS011;8154;50.830;12.082;2024-02-26T07:57:42;4.05;;;2.25;;
16099;SDS011;8154;50.830;12.082;2024-02-26T08:00:17;3.88;;;2.00;;
16099;SDS011;8154;50.830;12.082;2024-02-26T08:02:46;4.13;;;1.90;;
16099;SDS011;8154;50.830;12.082;2024-02-26T08:05:16;3.97;;;1.93;;
16099;SDS011;8154;50.830;12.082;2024-02-26T08:07:45;4.18;;;2.00;;
16099;SDS011;8154;50.830;12.082;2024-02-26T08:10:11;3.45;;;1.90;;
16099;SDS011;8154;50.830;12.082;2024-02-26T08:12:37;4.38;;;2.10;;
16099;SDS011;8154;50.830;12.082;2024-02-26T08:15:04;3.70;;;2.00;;
16099;SDS011;8154;50.830;12.082;2024-02-26T08:17:32;4.10;;;2.13;;
16099;SDS011;8154;50.830;12.082;2024-02-26T08:19:59;3.95;;;2.10;;
16099;SDS011;8154;50.830;12.082;2024-02-26T08:22:25;3.95;;;2.10;;
16099;SDS011;8154;50.830;12.082;2024-02-26T08:24:54;4.43;;;2.00;;
16099;SDS011;8154;50.830;12.082;2024-02-26T08:27:22;3.97;;;2.10;;
16099;SDS011;8154;50.830;12.082;2024-02-26T08:29:51;4.40;;;1.90;;
16099;SDS011;8154;50.830;12.082;2024-02-26T08:32:19;4.60;;;2.10;;
16099;SDS011;8154;50.830;12.082;2024-02-26T08:34:46;4.05;;;2.10;;
16099;SDS011;8154;50.830;12.082;2024-02-26T08:37:11;4.75;;;2.20;;
16099;SDS011;8154;50.830;12.082;2024-02-26T08:39:38;4.10;;;2.10;;
16099;SDS011;8154;50.830;12.082;2024-02-26T08:42:05;4.47;;;2.20;;
16099;SDS011;8154;50.830;12.082;2024-02-26T08:44:41;4.35;;;2.08;;
16099;SDS011;8154;50.830;12.082;2024-02-26T08:47:10;4.07;;;2.13;;
16099;SDS011;8154;50.830;12.082;2024-02-26T08:49:42;3.95;;;1.95;;
16099;SDS011;8154;50.830;12.082;2024-02-26T08:52:13;4.75;;;2.38;;
16099;SDS011;8154;50.830;12.082;2024-02-26T08:54:42;3.60;;;1.93;;
16099;SDS011;8154;50.830;12.082;2024-02-26T08:57:08;3.88;;;1.95;;
16099;SDS011;8154;50.830;12.082;2024-02-26T08:59:35;4.22;;;2.13;;
16099;SDS011;8154;50.830;12.082;2024-02-26T09:02:01;4.45;;;2.17;;
16099;SDS011;8154;50.830;12.082;2024-02-26T09:04:28;4.22;;;2.20;;
16099;SDS011;8154;50.830;12.082;2024-02-26T09:07:12;3.97;;;2.03;;
16099;SDS011;8154;50.830;12.082;2024-02-26T09:09:39;3.33;;;1.88;;
16099;SDS011;8154;50.830;12.082;2024-02-26T09:12:05;4.47;;;2.00;;
16099;SDS011;8154;50.830;12.082;2024-02-26T09:14:34;4.15;;;2.08;;
16099;SDS011;8154;50.830;12.082;2024-02-26T09:17:00;3.97;;;2.28;;
16099;SDS011;8154;50.830;12.082;2024-02-26T09:19:26;4.03;;;2.07;;
16099;SDS011;8154;50.830;12.082;2024-02-26T09:21:55;3.95;;;1.92;;
16099;SDS011;8154;50.830;12.082;2024-02-26T09:24:23;3.83;;;2.05;;
16099;SDS011;8154;50.830;12.082;2024-02-26T09:26:50;3.53;;;1.80;;
16099;SDS011;8154;50.830;12.082;2024-02-26T09:29:18;3.70;;;1.90;;
16099;SDS011;8154;50.830;12.082;2024-02-26T09:31:47;3.90;;;2.00;;
16099;SDS011;8154;50.830;12.082;2024-02-26T09:34:16;3.63;;;1.85;;
16099;SDS011;8154;50.830;12.082;2024-02-26T09:36:45;4.47;;;2.30;;
16099;SDS011;8154;50.830;12.082;2024-02-26T09:39:11;3.67;;;1.77;;
16099;SDS011;8154;50.830;12.082;2024-02-26T09:41:57;3.65;;;2.00;;
16099;SDS011;8154;50.830;12.082;2024-02-26T09:44:25;3.50;;;2.00;;
16099;SDS011;8154;50.830;12.082;2024-02-26T09:46:56;4.72;;;2.13;;
16099;SDS011;8154;50.830;12.082;2024-02-26T09:49:24;4.43;;;1.90;;
16099;SDS011;8154;50.830;12.082;2024-02-26T09:51:53;4.18;;;2.10;;
16099;SDS011;8154;50.830;12.082;2024-02-26T09:54:22;4.60;;;2.20;;
16099;SDS011;8154;50.830;12.082;2024-02-26T09:56:54;4.50;;;2.10;;
16099;SDS011;8154;50.830;12.082;2024-02-26T09:59:27;4.47;;;2.13;;
16099;SDS011;8154;50.830;12.082;2024-02-26T10:01:55;4.43;;;2.30;;
16099;SDS011;8154;50.830;12.082;2024-02-26T10:04:23;4.85;;;2.20;;
16099;SDS011;8154;50.830;12.082;2024-02-26T10:06:51;4.30;;;2.20;;
16099;SDS011;8154;50.830;12.082;2024-02-26T10:09:17;3.70;;;2.00;;
16099;SDS011;8154;50.830;12.082;2024-02-26T10:12:04;4.15;;;2.00;;
16099;SDS011;8154;50.830;12.082;2024-02-26T10:14:35;4.10;;;2.00;;
16099;SDS011;8154;50.830;12.082;2024-02-26T10:17:03;4.20;;;2.00;;
16099;SDS011;8154;50.830;12.082;2024-02-26T10:19:37;4.55;;;2.13;;
16099;SDS011;8154;50.830;12.082;2024-02-26T10:22:04;3.37;;;1.80;;
16099;SDS011;8154;50.830;12.082;2024-02-26T10:24:30;4.28;;;1.95;;
16099;SDS011;8154;50.830;12.082;2024-02-26T10:26:56;3.80;;;1.98;;
16099;SDS011;8154;50.830;12.082;2024-02-26T10:29:24;4.43;;;2.25;;
16099;SDS011;8154;50.830;12.082;2024-02-26T10:31:51;4.30;;;2.25;;
16099;SDS011;8154;50.830;12.082;2024-02-26T10:34:20;4.00;;;2.13;;
16099;SDS011;8154;50.830;12.082;2024-02-26T10:36:49;3.70;;;1.90;;
16099;SDS011;8154;50.830;12.082;2024-02-26T10:39:18;3.80;;;1.80;;
16099;SDS011;8154;50.830;12.082;2024-02-26T10:41:47;3.83;;;1.80;;
16099;SDS011;8154;50.830;12.082;2024-02-26T10:44:14;4.25;;;2.00;;
16099;SDS011;8154;50.830;12.082;2024-02-26T10:46:41;3.80;;;1.90;;
16099;SDS011;8154;50.830;12.082;2024-02-26T10:49:12;3.95;;;2.10;;
16099;SDS011;8154;50.830;12.082;2024-02-26T10:51:40;5.18;;;1.85;;
16099;SDS011;8154;50.830;12.082;2024-02-26T10:54:10;3.67;;;2.00;;
16099;SDS011;8154;50.830;12.082;2024-02-26T10:56:43;4.32;;;2.00;;
16099;SDS011;8154;50.830;12.082;2024-02-26T10:59:16;4.33;;;2.10;;
16099;SDS011;8154;50.830;12.082;2024-02-26T11:01:50;4.20;;;1.90;;
16099;SDS011;8154;50.830;12.082;2024-02-26T11:04:18;4.40;;;2.20;;
16099;SDS011;8154;50.830;12.082;2024-02-26T11:06:44;5.10;;;2.50;;
16099;SDS011;8154;50.830;12.082;2024-02-26T11:09:12;5.07;;;2.40;;
16099;SDS011;8154;50.830;12.082;2024-02-26T11:11:40;4.27;;;2.30;;
16099;SDS011;8154;50.830;12.082;2024-02-26T11:14:08;4.50;;;2.33;;
16099;SDS011;8154;50.830;12.082;2024-02-26T11:16:35;4.70;;;2.40;;
16099;SDS011;8154;50.830;12.082;2024-02-26T11:19:03;4.95;;;2.60;;
16099;SDS011;8154;50.830;12.082;2024-02-26T11:21:35;5.00;;;2.47;;
16099;SDS011;8154;50.830;12.082;2024-02-26T11:24:07;4.83;;;2.30;;
16099;SDS011;8154;50.830;12.082;2024-02-26T11:26:38;4.25;;;2.28;;
16099;SDS011;8154;50.830;12.082;2024-02-26T11:29:11;5.35;;;2.67;;
16099;SDS011;8154;50.830;12.082;2024-02-26T11:32:00;5.30;;;2.40;;
16099;SDS011;8154;50.830;12.082;2024-02-26T11:34:26;5.25;;;2.58;;
16099;SDS011;8154;50.830;12.082;2024-02-26T11:36:54;4.77;;;2.40;;
16099;SDS011;8154;50.830;12.082;2024-02-26T11:39:42;4.57;;;2.40;;
16099;SDS011;8154;50.830;12.082;2024-02-26T11:42:14;4.85;;;2.47;;
16099;SDS011;8154;50.830;12.082;2024-02-26T11:44:44;5.30;;;2.60;;
16099;SDS011;8154;50.830;12.082;2024-02-26T11:47:21;4.97;;;2.50;;
16099;SDS011;8154;50.830;12.082;2024-02-26T11:49:49;5.27;;;2.50;;
16099;SDS011;8154;50.830;12.082;2024-02-26T11:52:15;4.50;;;2.42;;
16099;SDS011;8154;50.830;12.082;2024-02-26T11:57:29;5.53;;;2.58;;
16099;SDS011;8154;50.830;12.082;2024-02-26T12:02:39;4.43;;;2.50;;
16099;SDS011;8154;50.830;12.082;2024-02-26T12:05:10;4.50;;;2.50;;
16099;SDS011;8154;50.830;12.082;2024-02-26T12:07:42;5.18;;;2.78;;
16099;SDS011;8154;50.830;12.082;2024-02-26T12:10:21;4.53;;;2.20;;
16099;SDS011;8154;50.830;12.082;2024-02-26T12:13:00;4.10;;;2.13;;
16099;SDS011;8154;50.830;12.082;2024-02-26T12:15:31;4.97;;;2.40;;
16099;SDS011;8154;50.830;12.082;2024-02-26T12:18:03;4.80;;;2.50;;
16099;SDS011;8154;50.830;12.082;2024-02-26T12:20:31;4.35;;;2.35;;
16099;SDS011;8154;50.830;12.082;2024-02-26T12:23:15;5.18;;;2.50;;
16099;SDS011;8154;50.830;12.082;2024-02-26T12:25:45;4.47;;;2.30;;
16099;SDS011;8154;50.830;12.082;2024-02-26T12:28:15;4.87;;;2.30;;
16099;SDS011;8154;50.830;12.082;2024-02-26T12:30:45;4.60;;;2.53;;
16099;SDS011;8154;50.830;12.082;2024-02-26T12:33:11;4.72;;;2.38;;
16099;SDS011;8154;50.830;12.082;2024-02-26T12:35:38;4.65;;;2.60;;
16099;SDS011;8154;50.830;12.082;2024-02-26T12:38:05;4.63;;;2.22;;
16099;SDS011;8154;50.830;12.082;2024-02-26T12:40:32;4.90;;;2.30;;
16099;SDS011;8154;50.830;12.082;2024-02-26T12:42:58;4.63;;;2.58;;
16099;SDS011;8154;50.830;12.082;2024-02-26T12:45:42;4.25;;;2.25;;
16099;SDS011;8154;50.830;12.082;2024-02-26T12:48:14;4.10;;;2.25;;
16099;SDS011;8154;50.830;12.082;2024-02-26T12:50:45;4.50;;;2.40;;
16099;SDS011;8154;50.830;12.082;2024-02-26T12:53:15;4.67;;;2.50;;
16099;SDS011;8154;50.830;12.082;2024-02-26T12:55:42;5.20;;;2.50;;
16099;SDS011;8154;50.830;12.082;2024-02-26T12:58:08;4.90;;;2.33;;
16099;SDS011;8154;50.830;12.082;2024-02-26T13:00:35;4.70;;;2.40;;
16099;SDS011;8154;50.830;12.082;2024-02-26T13:03:03;4.63;;;2.10;;
16099;SDS011;8154;50.830;12.082;2024-02-26T13:05:30;4.23;;;2.27;;
16099;SDS011;8154;50.830;12.082;2024-02-26T13:07:59;4.32;;;2.28;;
16099;SDS011;8154;50.830;12.082;2024-02-26T13:10:26;5.05;;;2.53;;
16099;SDS011;8154;50.830;12.082;2024-02-26T13:12:54;4.63;;;2.40;;
16099;SDS011;8154;50.830;12.082;2024-02-26T13:15:21;4.35;;;2.30;;
16099;SDS011;8154;50.830;12.082;2024-02-26T13:17:48;5.97;;;2.63;;
16099;SDS011;8154;50.830;12.082;2024-02-26T13:20:26;9.88;;;5.50;;
16099;SDS011;8154;50.830;12.082;2024-02-26T13:23:05;12.98;;;9.07;;
16099;SDS011;8154;50.830;12.082;2024-02-26T13:25:36;13.07;;;9.23;;
16099;SDS011;8154;50.830;12.082;2024-02-26T13:28:22;12.68;;;9.18;;
16099;SDS011;8154;50.830;12.082;2024-02-26T13:30:51;13.23;;;8.83;;
16099;SDS011;8154;50.830;12.082;2024-02-26T13:33:25;13.23;;;8.48;;
16099;SDS011;8154;50.830;12.082;2024-02-26T13:35:56;13.82;;;9.07;;
16099;SDS011;8154;50.830;12.082;2024-02-26T13:38:25;11.90;;;8.63;;
16099;SDS011;8154;50.830;12.082;2024-02-26T13:40:52;12.57;;;8.60;;
16099;SDS011;8154;50.830;12.082;2024-02-26T13:43:19;14.17;;;8.90;;
16099;SDS011;8154;50.830;12.082;2024-02-26T13:45:46;12.25;;;8.18;;
16099;SDS011;8154;50.830;12.082;2024-02-26T13:48:13;13.50;;;8.65;;
16099;SDS011;8154;50.830;12.082;2024-02-26T13:51:00;15.25;;;8.20;;
16099;SDS011;8154;50.830;12.082;2024-02-26T13:53:28;12.10;;;7.80;;
16099;SDS011;8154;50.830;12.082;2024-02-26T13:55:57;11.20;;;7.30;;
16099;SDS011;8154;50.830;12.082;2024-02-26T13:58:27;10.20;;;6.88;;
16099;SDS011;8154;50.830;12.082;2024-02-26T14:00:55;10.50;;;6.32;;
16099;SDS011;8154;50.830;12.082;2024-02-26T14:03:22;10.57;;;5.72;;
16099;SDS011;8154;50.830;12.082;2024-02-26T14:05:48;9.48;;;5.55;;
16099;SDS011;8154;50.830;12.082;2024-02-26T14:08:14;11.47;;;5.60;;
16099;SDS011;8154;50.830;12.082;2024-02-26T14:10:41;11.25;;;5.70;;
16099;SDS011;8154;50.830;12.082;2024-02-26T14:13:09;9.80;;;5.32;;
16099;SDS011;8154;50.830;12.082;2024-02-26T14:15:37;9.07;;;5.15;;
16099;SDS011;8154;50.830;12.082;2024-02-26T14:18:07;8.43;;;4.57;;
16099;SDS011;8154;50.830;12.082;2024-02-26T14:20:36;8.90;;;5.30;;
16099;SDS011;8154;50.830;12.082;2024-02-26T14:23:03;9.98;;;5.10;;
16099;SDS011;8154;50.830;12.082;2024-02-26T14:25:29;8.02;;;4.50;;
16099;SDS011;8154;50.830;12.082;2024-02-26T14:27:55;9.00;;;4.63;;
16099;SDS011;8154;50.830;12.082;2024-02-26T14:30:21;8.27;;;4.60;;
16099;SDS011;8154;50.830;12.082;2024-02-26T14:32:47;8.93;;;4.60;;
16099;SDS011;8154;50.830;12.082;2024-02-26T14:35:16;8.68;;;4.30;;
16099;SDS011;8154;50.830;12.082;2024-02-26T14:37:44;7.85;;;4.43;;
16099;SDS011;8154;50.830;12.082;2024-02-26T14:40:19;7.15;;;4.15;;
16099;SDS011;8154;50.830;12.082;2024-02-26T14:42:49;8.77;;;4.50;;
16099;SDS011;8154;50.830;12.082;2024-02-26T14:45:15;7.73;;;4.37;;
16099;SDS011;8154;50.830;12.082;2024-02-26T14:47:42;8.27;;;4.00;;
16099;SDS011;8154;50.830;12.082;2024-02-26T14:50:10;7.20;;;4.18;;
16099;SDS011;8154;50.830;12.082;2024-02-26T14:52:38;7.20;;;4.25;;
16099;SDS011;8154;50.830;12.082;2024-02-26T14:55:04;6.95;;;4.00;;
16099;SDS011;8154;50.830;12.082;2024-02-26T14:57:33;7.90;;;4.13;;
16099;SDS011;8154;50.830;12.082;2024-02-26T15:00:02;7.10;;;4.13;;
16099;SDS011;8154;50.830;12.082;2024-02-26T15:02:33;6.40;;;3.72;;
16099;SDS011;8154;50.830;12.082;2024-02-26T15:05:02;7.43;;;3.97;;
16099;SDS011;8154;50.830;12.082;2024-02-26T15:07:29;7.85;;;4.00;;
16099;SDS011;8154;50.830;12.082;2024-02-26T15:09:55;7.20;;;4.10;;
16099;SDS011;8154;50.830;12.082;2024-02-26T15:12:23;7.45;;;3.67;;
16099;SDS011;8154;50.830;12.082;2024-02-26T15:14:49;6.30;;;3.70;;
16099;SDS011;8154;50.830;12.082;2024-02-26T15:17:15;6.93;;;3.90;;
16099;SDS011;8154;50.830;12.082;2024-02-26T15:19:44;6.72;;;3.58;;
16099;SDS011;8154;50.830;12.082;2024-02-26T15:22:13;6.93;;;3.80;;
16099;SDS011;8154;50.830;12.082;2024-02-26T15:24:43;7.00;;;3.85;;
16099;SDS011;8154;50.830;12.082;2024-02-26T15:27:11;6.63;;;3.85;;
16099;SDS011;8154;50.830;12.082;2024-02-26T15:29:37;7.07;;;3.53;;
16099;SDS011;8154;50.830;12.082;2024-02-26T15:32:04;6.28;;;3.60;;
16099;SDS011;8154;50.830;12.082;2024-02-26T15:34:30;7.90;;;3.90;;
16099;SDS011;8154;50.830;12.082;2024-02-26T15:36:56;6.45;;;3.42;;
16099;SDS011;8154;50.830;12.082;2024-02-26T15:39:22;6.78;;;3.72;;
16099;SDS011;8154;50.830;12.082;2024-02-26T15:41:49;6.75;;;3.42;;
16099;SDS011;8154;50.830;12.082;2024-02-26T15:44:19;6.70;;;3.92;;
16099;SDS011;8154;50.830;12.082;2024-02-26T15:46:47;6.17;;;3.60;;
16099;SDS011;8154;50.830;12.082;2024-02-26T15:49:15;6.85;;;3.55;;
16099;SDS011;8154;50.830;12.082;2024-02-26T15:51:41;6.72;;;3.60;;
16099;SDS011;8154;50.830;12.082;2024-02-26T15:54:08;7.03;;;3.55;;
16099;SDS011;8154;50.830;12.082;2024-02-26T15:56:34;6.38;;;3.75;;
16099;SDS011;8154;50.830;12.082;2024-02-26T15:59:01;6.73;;;3.40;;
16099;SDS011;8154;50.830;12.082;2024-02-26T16:01:45;6.15;;;3.45;;